Time;durP1;ratioP1;P1;durP2;ratioP2;P2;SDS_P1;SDS_P2;PMS_P1;PMS_P2;Temp;Humidity;BMP_temperature;BMP_pressure;BME280_temperature;BME280_humidity;BME280_pressure;Samples;Min_cycle;Max_cycle;Signal;HPM_P1;HPM_P2
2022/07/30 00:02:23;;;;;;;4.70;3.97;;;21.70;86.20;;;;;;5007243;28;20625;-73
2022/07/30 00:04:49;;;;;;;5.13;4.20;;;21.70;86.60;;;;;;4990632;28;20218;-73
2022/07/30 00:07:15;;;;;;;4.90;4.20;;;21.70;86.90;;;;;;4992103;28;20209;-73
2022/07/30 00:09:40;;;;;;;4.60;3.47;;;21.70;87.40;;;;;;4990719;28;20171;-72
2022/07/30 00:12:07;;;;;;;6.20;3.87;;;21.70;87.90;;;;;;4992156;28;20218;-73
2022/07/30 00:14:36;;;;;;;5.93;4.43;;;21.70;88.40;;;;;;4990632;28;20602;-73
2022/07/30 00:17:03;;;;;;;6.47;3.77;;;21.60;88.60;;;;;;4992202;28;20664;-73
2022/07/30 00:19:29;;;;;;;5.43;3.10;;;21.60;89.00;;;;;;4991969;28;20687;-73
2022/07/30 00:21:54;;;;;;;5.57;3.83;;;21.60;89.40;;;;;;4991742;28;20648;-73
2022/07/30 00:24:21;;;;;;;4.67;3.30;;;21.50;89.70;;;;;;4991587;28;20171;-73
2022/07/30 00:26:47;;;;;;;4.30;3.13;;;21.50;90.00;;;;;;4991710;28;20170;-73
2022/07/30 00:29:13;;;;;;;4.67;3.07;;;21.50;90.20;;;;;;5006894;28;20609;-72
2022/07/30 00:31:39;;;;;;;5.27;3.20;;;21.50;90.40;;;;;;5006775;28;21224;-72
2022/07/30 00:34:04;;;;;;;4.60;3.07;;;21.50;90.50;;;;;;4990480;28;20178;-72
2022/07/30 00:36:30;;;;;;;9.47;3.23;;;21.40;90.70;;;;;;4993704;28;20298;-72
2022/07/30 00:38:56;;;;;;;3.50;2.90;;;21.40;91.00;;;;;;4994231;28;20213;-73
2022/07/30 00:41:23;;;;;;;6.23;3.13;;;21.40;91.20;;;;;;4995655;28;20159;-72
2022/07/30 00:43:48;;;;;;;4.57;3.27;;;21.30;91.30;;;;;;4994378;28;21015;-73
2022/07/30 00:46:14;;;;;;;3.60;2.80;;;21.30;91.50;;;;;;4993963;28;20614;-73
2022/07/30 00:48:41;;;;;;;4.20;3.13;;;21.30;91.70;;;;;;4978273;28;20577;-72
2022/07/30 00:51:07;;;;;;;3.17;2.87;;;21.20;91.80;;;;;;4993878;28;20569;-73
2022/07/30 00:53:34;;;;;;;3.50;2.53;;;21.20;91.90;;;;;;4995335;28;20675;-73
2022/07/30 00:56:00;;;;;;;3.40;2.90;;;21.20;92.10;;;;;;4995010;28;20613;-72
2022/07/30 00:58:26;;;;;;;3.70;2.93;;;21.20;92.20;;;;;;4994063;28;20602;-73
2022/07/30 01:00:52;;;;;;;3.20;2.90;;;21.10;92.40;;;;;;4994069;28;20622;-72
2022/07/30 01:03:18;;;;;;;4.20;2.80;;;21.10;92.60;;;;;;4995504;28;20594;-73
2022/07/30 01:05:44;;;;;;;5.13;2.80;;;21.00;92.70;;;;;;4994943;28;20574;-73
2022/07/30 01:08:11;;;;;;;3.37;2.30;;;21.00;92.90;;;;;;4977762;28;20573;-73
2022/07/30 01:10:36;;;;;;;4.07;2.43;;;21.00;93.10;;;;;;4995198;28;20665;-73
2022/07/30 01:13:03;;;;;;;3.70;2.70;;;20.90;93.20;;;;;;4993853;28;20689;-73
2022/07/30 01:15:30;;;;;;;3.63;2.40;;;20.90;93.40;;;;;;4995056;28;20183;-73
2022/07/30 01:18:00;;;;;;;2.87;2.33;;;20.80;93.60;;;;;;4993750;28;20566;-73
2022/07/30 01:20:35;;;;;;;5.30;2.73;;;20.80;93.90;;;;;;4994993;28;20665;-72
2022/07/30 01:23:13;;;;;;;5.40;2.93;;;20.80;94.20;;;;;;4977430;28;20613;-73
2022/07/30 01:26:14;;;;;;;4.70;2.50;;;20.70;94.50;;;;;;4994854;28;20624;-73
2022/07/30 01:28:44;;;;;;;3.87;3.00;;;20.70;94.60;;;;;;4990648;28;20594;-72
2022/07/30 01:31:12;;;;;;;4.60;3.00;;;20.60;94.50;;;;;;4993500;28;20574;-73
2022/07/30 01:33:42;;;;;;;6.33;3.47;;;20.60;94.70;;;;;;5009536;28;20601;-73
2022/07/30 01:36:10;;;;;;;3.90;3.07;;;20.60;95.10;;;;;;5009586;28;20562;-73
2022/07/30 01:38:38;;;;;;;4.80;3.37;;;20.50;95.10;;;;;;4994477;28;20570;-72
2022/07/30 01:41:05;;;;;;;3.03;2.57;;;20.50;95.20;;;;;;4994671;28;20602;-72
2022/07/30 01:43:34;;;;;;;4.80;3.37;;;20.50;95.40;;;;;;4993187;28;21175;-73
2022/07/30 01:46:02;;;;;;;3.43;3.10;;;20.50;95.60;;;;;;4976876;28;21128;-72
2022/07/30 01:48:29;;;;;;;5.57;3.10;;;20.50;95.70;;;;;;4992070;28;20949;-72
2022/07/30 01:50:58;;;;;;;5.60;2.90;;;20.50;95.70;;;;;;5009575;28;20569;-73
2022/07/30 01:53:27;;;;;;;3.67;2.80;;;20.40;95.90;;;;;;4993105;28;20733;-73
2022/07/30 01:55:54;;;;;;;5.90;3.43;;;20.40;96.00;;;;;;4992909;28;20593;-73
2022/07/30 01:58:25;;;;;;;4.17;3.77;;;20.40;96.10;;;;;;4993223;28;20581;-73
2022/07/30 02:00:56;;;;;;;6.13;3.30;;;20.40;96.20;;;;;;4993169;28;20626;-73
2022/07/30 02:03:23;;;;;;;6.63;3.83;;;20.40;96.20;;;;;;4993115;28;20686;-74
2022/07/30 02:05:55;;;;;;;5.20;3.43;;;20.30;96.20;;;;;;4992867;28;20967;-73
2022/07/30 02:08:35;;;;;;;3.30;2.93;;;20.30;96.30;;;;;;4993115;28;20602;-73
2022/07/30 02:11:08;;;;;;;3.80;3.20;;;20.30;96.30;;;;;;4976975;28;20578;-73
2022/07/30 02:13:57;;;;;;;4.00;3.30;;;20.30;96.50;;;;;;5009127;28;20629;-73
2022/07/30 02:16:28;;;;;;;3.50;3.00;;;20.20;96.60;;;;;;4993821;28;20566;-73
2022/07/30 02:19:12;;;;;;;5.03;3.50;;;20.20;96.50;;;;;;4992766;28;20984;-73
2022/07/30 02:21:44;;;;;;;4.53;3.60;;;20.20;96.80;;;;;;4992545;28;20598;-73
2022/07/30 02:24:18;;;;;;;5.20;3.20;;;20.10;96.70;;;;;;5008800;28;20614;-73
2022/07/30 02:26:47;;;;;;;4.80;3.63;;;20.10;96.90;;;;;;4992439;28;20628;-73
2022/07/30 02:29:15;;;;;;;4.33;3.77;;;20.10;96.80;;;;;;4992412;28;20669;-73
2022/07/30 02:31:41;;;;;;;4.70;3.77;;;20.00;96.80;;;;;;4975921;28;20700;-73
2022/07/30 02:34:08;;;;;;;4.73;3.80;;;20.00;96.90;;;;;;4992184;28;20598;-73
2022/07/30 02:36:35;;;;;;;5.43;3.33;;;20.00;97.10;;;;;;4992334;28;20253;-73
2022/07/30 02:39:03;;;;;;;6.30;4.37;;;20.00;97.20;;;;;;4993289;28;20747;-73
2022/07/30 02:41:30;;;;;;;3.90;3.60;;;19.90;97.20;;;;;;4993388;28;21005;-73
2022/07/30 02:43:59;;;;;;;4.10;3.37;;;19.90;97.30;;;;;;4992219;28;20632;-73
2022/07/30 02:46:26;;;;;;;5.03;4.27;;;19.90;97.50;;;;;;4992218;28;20578;-73
2022/07/30 02:49:17;;;;;;;6.03;4.30;;;19.80;97.50;;;;;;4987525;28;20590;-73
2022/07/30 02:51:46;;;;;;;4.93;3.80;;;19.80;97.50;;;;;;4992253;28;21019;-73
2022/07/30 02:54:14;;;;;;;4.33;3.93;;;19.70;97.70;;;;;;4992844;28;20998;-73
2022/07/30 02:56:43;;;;;;;6.40;4.83;;;19.70;97.70;;;;;;4992170;28;20584;-73
2022/07/30 02:59:10;;;;;;;5.83;5.00;;;19.70;97.90;;;;;;4991473;28;20618;-72
2022/07/30 03:01:37;;;;;;;5.50;4.87;;;19.70;98.10;;;;;;4975614;28;20570;-72
2022/07/30 03:04:04;;;;;;;5.13;4.50;;;19.70;98.20;;;;;;4975646;28;20590;-73
2022/07/30 03:06:31;;;;;;;7.63;4.90;;;19.60;98.30;;;;;;4995503;28;20563;-73
2022/07/30 03:09:01;;;;;;;5.40;4.60;;;19.60;98.40;;;;;;4978627;28;20582;-74
2022/07/30 03:11:29;;;;;;;6.13;5.30;;;19.50;98.50;;;;;;4992477;28;20582;-74
2022/07/30 03:13:55;;;;;;;6.00;4.73;;;19.50;98.60;;;;;;4991925;28;20581;-73
2022/07/30 03:16:23;;;;;;;5.00;4.60;;;19.50;98.70;;;;;;4991653;28;20665;-73
2022/07/30 03:18:52;;;;;;;5.20;4.30;;;19.50;98.90;;;;;;4975132;28;20951;-73
2022/07/30 03:21:20;;;;;;;4.83;4.43;;;19.50;99.00;;;;;;4992810;28;20609;-73
2022/07/30 03:23:48;;;;;;;5.90;5.00;;;19.50;99.20;;;;;;4991595;28;20594;-73
2022/07/30 03:26:18;;;;;;;5.37;4.87;;;19.50;99.30;;;;;;4975052;28;20580;-72
2022/07/30 03:28:46;;;;;;;8.93;4.87;;;19.50;99.40;;;;;;4975156;28;20606;-73
2022/07/30 03:31:14;;;;;;;7.43;5.23;;;19.50;99.50;;;;;;4992321;28;20665;-73
2022/07/30 03:33:40;;;;;;;5.87;4.87;;;19.50;99.50;;;;;;4991302;28;20590;-73
2022/07/30 03:36:08;;;;;;;5.83;5.13;;;19.50;99.50;;;;;;4992009;28;20593;-74
2022/07/30 03:38:38;;;;;;;6.53;5.30;;;19.40;99.60;;;;;;4991097;28;20660;-73
2022/07/30 03:41:06;;;;;;;5.40;4.53;;;19.40;99.70;;;;;;4990691;28;20588;-73
2022/07/30 03:43:34;;;;;;;6.63;5.93;;;19.40;99.80;;;;;;4991071;28;21189;-74
2022/07/30 03:46:04;;;;;;;6.70;5.13;;;19.30;99.90;;;;;;4990875;28;20594;-73
2022/07/30 03:48:34;;;;;;;5.93;5.07;;;19.30;99.90;;;;;;4974919;28;20601;-73
2022/07/30 03:51:03;;;;;;;7.73;5.63;;;19.30;99.90;;;;;;4974697;28;20672;-73
2022/07/30 03:53:30;;;;;;;6.93;5.70;;;19.20;99.90;;;;;;4974821;28;20701;-73
2022/07/30 03:56:14;;;;;;;5.60;4.83;;;19.20;99.90;;;;;;4992006;28;20589;-72
2022/07/30 03:58:57;;;;;;;6.63;5.83;;;19.20;99.90;;;;;;5007416;28;20618;-72
2022/07/30 04:01:26;;;;;;;5.33;4.17;;;19.10;99.90;;;;;;5007056;28;20578;-72
2022/07/30 04:04:16;;;;;;;5.87;5.27;;;19.10;99.90;;;;;;5007351;28;20649;-73
2022/07/30 04:06:42;;;;;;;5.20;4.70;;;19.10;99.90;;;;;;4990560;28;20609;-73
2022/07/30 04:09:10;;;;;;;5.00;4.50;;;19.10;99.90;;;;;;4990712;28;20589;-73
2022/07/30 04:11:38;;;;;;;4.87;4.47;;;19.00;99.90;;;;;;5009138;28;20586;-73
2022/07/30 04:14:08;;;;;;;5.53;4.97;;;19.00;99.90;;;;;;4979357;28;20570;-73
2022/07/30 04:16:46;;;;;;;5.63;4.67;;;19.00;99.90;;;;;;4996062;28;20574;-72
2022/07/30 04:19:21;;;;;;;5.70;5.20;;;19.00;99.90;;;;;;5011115;28;21027;-72
2022/07/30 04:21:49;;;;;;;6.90;5.00;;;19.00;99.90;;;;;;4996839;23;20693;-75
2022/07/30 04:24:17;;;;;;;6.20;4.80;;;19.00;99.90;;;;;;5007417;28;20600;-75
2022/07/30 04:26:45;;;;;;;6.43;4.93;;;19.00;99.90;;;;;;5027680;28;20597;-75
2022/07/30 04:29:11;;;;;;;5.03;4.60;;;19.00;99.90;;;;;;4999131;28;20574;-75
2022/07/30 04:31:37;;;;;;;5.37;4.83;;;19.00;99.90;;;;;;4994382;28;20606;-73
2022/07/30 04:34:16;;;;;;;7.90;5.03;;;19.00;99.90;;;;;;5018228;28;20604;-73
2022/07/30 04:36:42;;;;;;;8.83;5.97;;;19.00;99.90;;;;;;5003115;28;20599;-74
2022/07/30 04:39:09;;;;;;;5.97;5.33;;;19.00;99.90;;;;;;5007916;28;20195;-73
2022/07/30 04:41:34;;;;;;;6.50;5.87;;;19.00;99.90;;;;;;4994331;28;20585;-74
2022/07/30 04:44:19;;;;;;;7.40;5.00;;;19.10;99.90;;;;;;4995398;28;20593;-75
2022/07/30 04:47:02;;;;;;;5.67;5.10;;;19.10;99.90;;;;;;4964117;28;20668;-74
2022/07/30 04:49:33;;;;;;;5.20;4.40;;;19.20;99.90;;;;;;4994755;28;20585;-74
2022/07/30 04:52:01;;;;;;;7.63;5.00;;;19.20;99.90;;;;;;4994640;28;21013;-74
2022/07/30 04:54:39;;;;;;;9.00;5.53;;;19.30;99.90;;;;;;4994730;28;20578;-74
2022/07/30 04:57:06;;;;;;;6.47;4.77;;;19.30;99.90;;;;;;4978228;28;20586;-74
2022/07/30 04:59:35;;;;;;;7.60;5.20;;;19.30;99.90;;;;;;4995337;28;20610;-74
2022/07/30 05:02:06;;;;;;;6.80;5.57;;;19.40;99.90;;;;;;4977491;28;20951;-74
2022/07/30 05:04:34;;;;;;;5.17;4.13;;;19.40;99.90;;;;;;4993982;28;20574;-74
2022/07/30 05:07:01;;;;;;;5.90;5.40;;;19.40;99.90;;;;;;4995066;28;21018;-74
2022/07/30 05:09:28;;;;;;;6.47;5.77;;;19.50;99.90;;;;;;4990536;28;20586;-74
2022/07/30 05:11:56;;;;;;;9.10;5.77;;;19.50;99.90;;;;;;4983156;28;20630;-74
2022/07/30 05:14:23;;;;;;;8.83;5.90;;;19.50;99.90;;;;;;5009633;28;20950;-74
2022/07/30 05:16:50;;;;;;;6.93;5.90;;;19.60;99.90;;;;;;5008799;28;20720;-74
2022/07/30 05:19:17;;;;;;;5.40;4.90;;;19.60;99.90;;;;;;4993686;28;20629;-74
2022/07/30 05:21:43;;;;;;;8.97;6.30;;;19.70;99.90;;;;;;5009540;28;20725;-74
2022/07/30 05:24:10;;;;;;;8.00;6.43;;;19.70;99.90;;;;;;4992140;28;20585;-74
2022/07/30 05:26:39;;;;;;;7.07;6.37;;;19.80;99.90;;;;;;4999918;28;20608;-74
2022/07/30 05:29:07;;;;;;;8.77;5.87;;;19.90;99.90;;;;;;5000990;28;20663;-74
2022/07/30 05:31:44;;;;;;;7.37;5.10;;;19.90;99.90;;;;;;4993227;28;20704;-74
2022/07/30 05:34:10;;;;;;;10.00;6.33;;;20.00;99.90;;;;;;4993614;28;20578;-74
2022/07/30 05:36:43;;;;;;;6.07;5.57;;;20.00;99.90;;;;;;4994565;28;20576;-74
2022/07/30 05:39:11;;;;;;;7.67;5.80;;;20.10;99.90;;;;;;5010097;28;20621;-74
2022/07/30 05:41:57;;;;;;;7.27;6.57;;;20.20;99.90;;;;;;4973808;28;20971;-75
2022/07/30 05:44:35;;;;;;;7.90;6.30;;;20.30;99.90;;;;;;5009549;28;20588;-74
2022/07/30 05:47:01;;;;;;;8.50;6.87;;;20.30;99.90;;;;;;4993431;28;20578;-74
2022/07/30 05:49:27;;;;;;;7.00;6.40;;;20.40;99.90;;;;;;4992653;28;20570;-74
2022/07/30 05:52:00;;;;;;;9.37;6.87;;;20.50;99.90;;;;;;4993187;28;20621;-74
2022/07/30 05:54:26;;;;;;;13.10;8.67;;;20.50;99.90;;;;;;4992736;28;20597;-75
2022/07/30 05:57:11;;;;;;;10.60;8.00;;;20.60;99.90;;;;;;4999336;28;20627;-75
2022/07/30 05:59:37;;;;;;;11.77;10.57;;;20.90;99.90;;;;;;5004216;28;20632;-75
2022/07/30 06:02:22;;;;;;;11.33;9.73;;;21.20;99.90;;;;;;5014165;28;20688;-75
2022/07/30 06:04:47;;;;;;;9.60;8.60;;;21.60;99.90;;;;;;5012118;28;20672;-75
2022/07/30 06:07:14;;;;;;;14.73;10.77;;;21.90;99.90;;;;;;5012728;28;20193;-75
2022/07/30 06:09:40;;;;;;;14.60;12.20;;;22.10;99.90;;;;;;5012387;28;20997;-75
2022/07/30 06:12:07;;;;;;;15.57;12.00;;;22.30;99.90;;;;;;5029012;28;21376;-75
2022/07/30 06:14:33;;;;;;;13.87;12.37;;;22.50;99.90;;;;;;4990872;28;20598;-76
2022/07/30 06:16:59;;;;;;;17.70;13.10;;;22.80;99.90;;;;;;5002869;28;21175;-75
2022/07/30 06:19:29;;;;;;;18.40;13.87;;;23.10;99.90;;;;;;4999206;28;20700;-76
2022/07/30 06:21:55;;;;;;;18.20;15.03;;;23.20;99.90;;;;;;4995258;28;20645;-75
2022/07/30 06:24:23;;;;;;;18.10;16.30;;;23.30;99.90;;;;;;4970853;28;20197;-75
2022/07/30 06:27:04;;;;;;;22.00;17.10;;;23.30;99.90;;;;;;4998152;28;20700;-75
2022/07/30 06:29:30;;;;;;;20.60;18.27;;;23.40;99.90;;;;;;5010471;28;20630;-75
2022/07/30 06:31:56;;;;;;;25.13;21.67;;;23.40;99.90;;;;;;4993842;28;20664;-75
2022/07/30 06:34:23;;;;;;;22.87;20.57;;;23.40;99.90;;;;;;5006790;28;20604;-75
2022/07/30 06:36:49;;;;;;;28.30;24.20;;;23.40;99.90;;;;;;5005462;28;20945;-75
2022/07/30 06:39:19;;;;;;;30.83;27.80;;;23.30;99.90;;;;;;4996938;28;20733;-76
2022/07/30 06:42:10;;;;;;;27.50;24.60;;;23.30;99.90;;;;;;4989093;28;20622;-76
2022/07/30 06:44:58;;;;;;;24.07;21.43;;;23.20;99.90;;;;;;4992832;28;20593;-74
2022/07/30 06:47:28;;;;;;;25.00;21.97;;;23.20;99.90;;;;;;4992248;28;20685;-74
2022/07/30 06:49:55;;;;;;;24.93;22.63;;;23.30;99.90;;;;;;4990932;28;20186;-75
2022/07/30 06:52:22;;;;;;;23.57;21.23;;;23.40;99.90;;;;;;4991676;28;20650;-74
2022/07/30 06:54:50;;;;;;;25.47;22.97;;;23.60;99.90;;;;;;4991443;28;20602;-74
2022/07/30 06:57:45;;;;;;;24.97;22.77;;;23.70;99.90;;;;;;4979248;28;20626;-74
2022/07/30 07:00:31;;;;;;;26.57;24.13;;;23.90;99.90;;;;;;4991789;28;20699;-74
2022/07/30 07:03:01;;;;;;;24.63;22.30;;;24.00;99.90;;;;;;4991862;28;20591;-74
2022/07/30 07:05:34;;;;;;;25.97;22.90;;;24.20;99.90;;;;;;4991782;28;21011;-74
2022/07/30 07:08:00;;;;;;;24.80;21.10;;;24.40;99.90;;;;;;4991596;28;20728;-75
2022/07/30 07:10:32;;;;;;;23.43;21.13;;;24.70;99.90;;;;;;4991708;28;20174;-75
2022/07/30 07:13:24;;;;;;;22.40;20.00;;;24.80;99.90;;;;;;4988545;28;20946;-74
2022/07/30 07:15:50;;;;;;;21.90;19.57;;;25.00;99.90;;;;;;4975360;28;20582;-75
2022/07/30 07:18:19;;;;;;;20.03;18.10;;;25.10;99.90;;;;;;4991547;28;20669;-75
2022/07/30 07:20:53;;;;;;;19.80;17.93;;;25.30;99.90;;;;;;4991336;28;20641;-74
2022/07/30 07:23:19;;;;;;;20.40;18.40;;;25.50;99.90;;;;;;4991412;28;20582;-74
2022/07/30 07:25:46;;;;;;;20.43;18.03;;;25.80;99.90;;;;;;4991188;28;20532;-74
2022/07/30 07:28:12;;;;;;;15.73;14.07;;;26.20;99.90;;;;;;4991426;28;20575;-75
2022/07/30 07:30:38;;;;;;;13.37;12.07;;;26.40;99.90;;;;;;4991208;28;20664;-74
2022/07/30 07:33:06;;;;;;;11.80;10.60;;;26.50;99.70;;;;;;4975061;28;20698;-74
2022/07/30 07:35:32;;;;;;;12.03;8.77;;;26.70;99.60;;;;;;4991364;28;20605;-75
2022/07/30 07:37:58;;;;;;;13.10;9.80;;;27.10;99.40;;;;;;4992481;28;20570;-75
2022/07/30 07:40:26;;;;;;;10.57;7.90;;;27.60;99.00;;;;;;4991089;28;20211;-75
2022/07/30 07:43:16;;;;;;;11.53;8.07;;;28.00;98.70;;;;;;4992626;28;20903;-74
2022/07/30 07:45:42;;;;;;;8.97;7.53;;;28.70;98.30;;;;;;4974757;28;20624;-75
2022/07/30 07:48:08;;;;;;;9.53;7.80;;;29.40;97.00;;;;;;4991901;28;20582;-74
2022/07/30 07:50:49;;;;;;;9.13;7.43;;;30.00;96.20;;;;;;4991168;28;20611;-74
2022/07/30 07:53:26;;;;;;;8.73;7.83;;;30.80;95.70;;;;;;4991142;28;20669;-74
2022/07/30 07:55:52;;;;;;;8.10;6.60;;;31.60;94.80;;;;;;4991029;28;21193;-74
2022/07/30 07:58:19;;;;;;;8.47;5.73;;;32.40;93.50;;;;;;4991087;28;20170;-74
2022/07/30 08:00:45;;;;;;;7.20;6.03;;;33.10;92.90;;;;;;4990802;28;20678;-74
2022/07/30 08:03:12;;;;;;;6.97;5.27;;;33.90;91.60;;;;;;4975023;28;20666;-74
2022/07/30 08:05:38;;;;;;;6.80;6.10;;;34.70;90.10;;;;;;4990895;28;20566;-75
2022/07/30 08:08:22;;;;;;;9.10;6.50;;;35.40;86.60;;;;;;4977222;28;20189;-74
2022/07/30 08:11:07;;;;;;;10.73;8.40;;;35.70;81.50;;;;;;4992252;28;20601;-74
2022/07/30 08:13:51;;;;;;;8.30;7.23;;;35.90;77.00;;;;;;4992171;28;20613;-74
2022/07/30 08:16:52;;;;;;;8.57;7.67;;;36.10;74.10;;;;;;4931966;29;20724;-74
2022/07/30 08:19:37;;;;;;;7.40;6.70;;;36.30;72.60;;;;;;4985020;28;20777;-74
2022/07/30 08:22:14;;;;;;;9.07;6.80;;;36.60;70.50;;;;;;4974577;28;20658;-74
2022/07/30 08:24:40;;;;;;;10.53;6.73;;;36.70;67.60;;;;;;4991637;28;20566;-74
2022/07/30 08:27:06;;;;;;;8.03;6.63;;;36.50;64.60;;;;;;4992235;28;20659;-74
2022/07/30 08:29:32;;;;;;;8.00;7.20;;;36.20;62.30;;;;;;4992274;28;20545;-74
2022/07/30 08:31:58;;;;;;;6.60;6.00;;;35.80;60.20;;;;;;4990931;28;20197;-74
2022/07/30 08:34:26;;;;;;;8.10;7.03;;;35.80;61.00;;;;;;4990510;28;20577;-74
2022/07/30 08:36:54;;;;;;;8.80;6.97;;;35.80;61.10;;;;;;4990792;28;20582;-74
2022/07/30 08:39:20;;;;;;;7.00;6.00;;;35.90;60.80;;;;;;4990880;28;20672;-74
2022/07/30 08:41:47;;;;;;;5.30;4.80;;;36.00;59.40;;;;;;4990677;28;20955;-74
2022/07/30 08:44:17;;;;;;;9.87;5.40;;;36.00;59.80;;;;;;4991816;28;20171;-74
2022/07/30 08:46:45;;;;;;;7.90;5.10;;;36.10;58.80;;;;;;4990793;28;20582;-74
2022/07/30 08:49:27;;;;;;;9.00;5.30;;;36.40;58.80;;;;;;4990955;28;20995;-74
2022/07/30 08:51:54;;;;;;;7.23;4.57;;;36.80;59.00;;;;;;4990474;28;20606;-75
2022/07/30 08:54:39;;;;;;;5.63;4.70;;;37.20;58.90;;;;;;4990616;28;20573;-74
2022/07/30 08:57:05;;;;;;;7.00;5.57;;;37.50;57.00;;;;;;4976089;28;20705;-75
2022/07/30 08:59:39;;;;;;;6.50;4.80;;;37.70;56.10;;;;;;4998010;28;20660;-74
2022/07/30 09:02:06;;;;;;;5.43;4.63;;;37.60;55.10;;;;;;4995843;28;20713;-74
2022/07/30 09:04:39;;;;;;;6.90;4.63;;;37.60;55.00;;;;;;4994128;28;20578;-73
2022/07/30 09:07:05;;;;;;;6.30;5.47;;;37.80;54.70;;;;;;4994130;28;20574;-74
2022/07/30 09:09:31;;;;;;;6.10;4.30;;;38.00;53.90;;;;;;4994177;28;21256;-74
2022/07/30 09:11:58;;;;;;;7.53;4.30;;;38.20;54.00;;;;;;4994080;28;20187;-74
2022/07/30 09:14:24;;;;;;;7.77;6.30;;;38.40;53.40;;;;;;4995118;28;20252;-74
2022/07/30 09:16:56;;;;;;;5.70;5.20;;;38.20;52.20;;;;;;4993853;28;20688;-73
2022/07/30 09:19:22;;;;;;;6.60;5.80;;;37.70;50.10;;;;;;4993922;28;20725;-73
2022/07/30 09:21:59;;;;;;;5.57;4.70;;;36.90;49.70;;;;;;4993459;28;20620;-73
2022/07/30 09:24:44;;;;;;;8.80;6.00;;;36.20;49.30;;;;;;4994778;28;20569;-73
2022/07/30 09:27:47;;;;;;;8.37;5.47;;;35.40;50.30;;;;;;4994892;28;20605;-74
2022/07/30 09:30:53;;;;;;;7.67;5.90;;;35.00;51.10;;;;;;4994579;28;20603;-74
2022/07/30 09:33:40;;;;;;;6.63;4.77;;;35.00;52.40;;;;;;4994837;28;20577;-75
2022/07/30 09:36:30;;;;;;;7.30;4.73;;;35.50;54.00;;;;;;4995242;28;20655;-75
2022/07/30 09:39:30;;;;;;;5.37;4.53;;;35.80;52.80;;;;;;4995645;28;20724;-75
2022/07/30 09:42:16;;;;;;;7.93;5.10;;;35.50;51.60;;;;;;4995073;28;21210;-74
2022/07/30 09:44:42;;;;;;;6.70;5.93;;;35.40;51.60;;;;;;4994049;28;20581;-74
2022/07/30 09:47:29;;;;;;;7.00;5.03;;;35.60;52.30;;;;;;4993819;28;20171;-74
2022/07/30 09:50:13;;;;;;;5.53;4.77;;;36.00;52.80;;;;;;4993585;28;20632;-74
2022/07/30 09:52:42;;;;;;;5.33;4.93;;;36.40;51.80;;;;;;4993713;28;21013;-74
2022/07/30 09:55:10;;;;;;;5.57;4.60;;;36.50;50.90;;;;;;4993052;28;21149;-75
2022/07/30 09:58:02;;;;;;;6.97;4.80;;;36.90;51.30;;;;;;4993992;28;20690;-74
2022/07/30 10:00:30;;;;;;;5.60;3.83;;;37.40;50.30;;;;;;4993557;28;20629;-74
2022/07/30 10:03:24;;;;;;;5.30;4.07;;;37.80;50.70;;;;;;4992710;28;21137;-74
2022/07/30 10:06:08;;;;;;;5.63;4.07;;;38.30;50.10;;;;;;4994493;28;20616;-75
2022/07/30 10:08:40;;;;;;;6.30;4.40;;;38.80;49.20;;;;;;4992551;28;20574;-73
2022/07/30 10:11:14;;;;;;;5.77;4.20;;;39.00;47.40;;;;;;4993027;28;20657;-73
2022/07/30 10:13:42;;;;;;;3.73;3.37;;;39.00;46.70;;;;;;4993917;28;20601;-74
2022/07/30 10:16:08;;;;;;;4.40;3.90;;;39.10;46.20;;;;;;4994367;28;20586;-74
2022/07/30 10:18:36;;;;;;;11.20;4.37;;;39.20;45.70;;;;;;4993452;28;20577;-74
2022/07/30 10:21:26;;;;;;;6.10;4.10;;;39.30;45.30;;;;;;4993575;28;20670;-74
2022/07/30 10:24:05;;;;;;;4.20;3.03;;;39.50;44.80;;;;;;4994849;28;20616;-75
2022/07/30 10:26:51;;;;;;;8.90;3.80;;;39.70;44.50;;;;;;4992400;28;20598;-74
2022/07/30 10:29:43;;;;;;;5.40;3.00;;;39.70;43.20;;;;;;4992702;28;20625;-75
2022/07/30 10:32:09;;;;;;;4.67;3.20;;;39.30;42.50;;;;;;4992837;28;20621;-74
2022/07/30 10:34:38;;;;;;;4.57;3.00;;;39.00;42.50;;;;;;4993625;28;20644;-75
2022/07/30 10:37:05;;;;;;;2.67;2.17;;;38.90;43.20;;;;;;4993643;28;20648;-74
2022/07/30 10:39:58;;;;;;;3.90;2.60;;;39.10;43.30;;;;;;4993098;28;20693;-75
2022/07/30 10:42:48;;;;;;;4.77;2.10;;;39.40;43.40;;;;;;4993719;28;20605;-75
2022/07/30 10:45:21;;;;;;;3.50;2.00;;;39.70;41.10;;;;;;4992170;28;20601;-74
2022/07/30 10:47:50;;;;;;;4.47;2.73;;;39.90;42.10;;;;;;4993550;28;20569;-74
2022/07/30 10:50:27;;;;;;;2.50;1.77;;;40.00;41.90;;;;;;4993729;28;20566;-74
2022/07/30 10:52:59;;;;;;;3.57;2.23;;;40.20;41.00;;;;;;4993323;28;20570;-75
2022/07/30 10:55:34;;;;;;;3.43;2.20;;;40.20;40.70;;;;;;4992895;28;20574;-75
2022/07/30 10:58:04;;;;;;;3.23;2.00;;;40.20;40.50;;;;;;4993314;28;21230;-75
2022/07/30 11:00:54;;;;;;;4.47;2.27;;;40.20;40.20;;;;;;4992791;28;21324;-75
2022/07/30 11:03:24;;;;;;;3.07;1.87;;;40.00;38.90;;;;;;4992494;28;20604;-74
2022/07/30 11:06:11;;;;;;;5.10;1.93;;;40.00;39.00;;;;;;4984794;28;20586;-75
2022/07/30 11:08:42;;;;;;;2.57;1.47;;;39.90;38.20;;;;;;4992195;28;20685;-75
2022/07/30 11:11:19;;;;;;;2.37;1.60;;;39.60;38.40;;;;;;4991372;28;20613;-75
2022/07/30 11:13:54;;;;;;;4.10;2.33;;;39.60;38.60;;;;;;4991854;28;20603;-74
2022/07/30 11:16:22;;;;;;;6.37;2.00;;;39.50;38.00;;;;;;4988612;28;20596;-75
2022/07/30 11:19:16;;;;;;;3.17;2.20;;;39.30;37.90;;;;;;4984709;28;20574;-75
2022/07/30 11:21:46;;;;;;;7.27;2.73;;;39.10;37.50;;;;;;4991352;28;20626;-75
2022/07/30 11:24:41;;;;;;;3.20;2.30;;;38.80;37.20;;;;;;4990948;28;20569;-75
2022/07/30 11:27:07;;;;;;;2.47;1.60;;;38.50;37.30;;;;;;4991233;28;20597;-75
2022/07/30 11:29:38;;;;;;;6.10;2.10;;;38.40;37.40;;;;;;4992485;28;20699;-75
2022/07/30 11:32:31;;;;;;;3.63;2.00;;;38.20;37.30;;;;;;4991131;28;20597;-75
2022/07/30 11:35:14;;;;;;;2.87;1.70;;;38.00;38.00;;;;;;4985460;28;21008;-75
2022/07/30 11:38:06;;;;;;;3.53;1.77;;;37.90;38.30;;;;;;4992026;28;20654;-75
2022/07/30 11:40:43;;;;;;;3.13;2.10;;;37.90;38.10;;;;;;4992269;28;20621;-75
2022/07/30 11:43:31;;;;;;;5.57;2.07;;;37.80;38.00;;;;;;4991105;28;20566;-75
2022/07/30 11:46:21;;;;;;;2.60;1.87;;;37.60;37.90;;;;;;4992238;28;20566;-75
2022/07/30 11:48:58;;;;;;;3.10;1.40;;;37.50;38.30;;;;;;4992362;28;20567;-75
2022/07/30 11:51:25;;;;;;;6.03;3.17;;;37.50;38.00;;;;;;4992066;28;20597;-76
2022/07/30 11:54:01;;;;;;;4.67;2.50;;;37.50;37.90;;;;;;4992259;28;20582;-75
2022/07/30 11:56:26;;;;;;;3.90;1.87;;;37.30;37.30;;;;;;4992509;28;20561;-75
2022/07/30 11:59:03;;;;;;;3.63;2.70;;;37.20;37.60;;;;;;4992095;28;21097;-75
2022/07/30 12:01:30;;;;;;;4.13;1.70;;;37.00;37.20;;;;;;4991928;28;20248;-75
2022/07/30 12:03:56;;;;;;;4.43;1.77;;;36.80;37.40;;;;;;4992068;28;20562;-75
2022/07/30 12:06:22;;;;;;;3.20;1.30;;;36.50;37.60;;;;;;4991876;28;20561;-75
2022/07/30 12:08:51;;;;;;;3.57;2.00;;;36.30;37.50;;;;;;4992114;28;20625;-75
2022/07/30 12:11:17;;;;;;;3.23;1.67;;;36.20;37.40;;;;;;4991892;28;20623;-75
2022/07/30 12:13:53;;;;;;;4.20;2.53;;;36.00;37.30;;;;;;4992025;28;20577;-75
2022/07/30 12:16:19;;;;;;;2.93;1.87;;;35.90;36.90;;;;;;4991885;28;20575;-75
2022/07/30 12:18:46;;;;;;;4.53;1.60;;;35.60;36.50;;;;;;4991915;28;20566;-75
2022/07/30 12:21:15;;;;;;;2.30;1.83;;;35.40;36.40;;;;;;4991748;28;20574;-75
2022/07/30 12:23:52;;;;;;;2.90;1.47;;;35.20;36.90;;;;;;4992091;28;20605;-74
2022/07/30 12:26:23;;;;;;;3.50;2.83;;;34.90;37.50;;;;;;4991801;28;20656;-75
2022/07/30 12:28:50;;;;;;;4.23;3.03;;;34.80;38.20;;;;;;4991463;28;20565;-75
2022/07/30 12:31:17;;;;;;;2.60;1.90;;;34.80;38.80;;;;;;4992342;28;20655;-75
2022/07/30 12:33:43;;;;;;;3.10;1.67;;;34.70;37.80;;;;;;4995854;28;20585;-75
2022/07/30 12:36:09;;;;;;;3.00;1.70;;;34.60;38.30;;;;;;4995392;28;20574;-75
2022/07/30 12:38:47;;;;;;;3.07;2.13;;;34.60;38.00;;;;;;4996068;28;20571;-74
2022/07/30 12:41:13;;;;;;;5.67;2.20;;;34.50;38.10;;;;;;4998145;28;21050;-75
2022/07/30 12:44:00;;;;;;;3.10;1.80;;;34.40;38.30;;;;;;4999745;28;20567;-76
2022/07/30 12:46:27;;;;;;;4.73;1.23;;;34.20;37.90;;;;;;4997857;28;20582;-74
2022/07/30 12:48:56;;;;;;;2.40;1.43;;;34.10;37.70;;;;;;4999096;28;20588;-75
2022/07/30 12:51:24;;;;;;;3.17;1.43;;;33.90;37.40;;;;;;4999267;28;20668;-74
2022/07/30 12:53:52;;;;;;;2.80;1.30;;;33.70;37.50;;;;;;4997075;28;20583;-75
2022/07/30 12:56:27;;;;;;;2.33;1.17;;;33.50;37.50;;;;;;4996017;28;20568;-75
2022/07/30 12:58:55;;;;;;;2.27;1.10;;;33.20;37.30;;;;;;4995998;28;20625;-75
2022/07/30 13:01:43;;;;;;;2.37;1.00;;;33.00;37.50;;;;;;4994778;28;20617;-74
2022/07/30 13:04:11;;;;;;;2.57;1.43;;;32.70;37.80;;;;;;4995288;28;20661;-75
2022/07/30 13:06:39;;;;;;;4.23;1.73;;;32.50;37.70;;;;;;4995082;28;20578;-75
2022/07/30 13:09:06;;;;;;;3.77;1.40;;;32.20;37.70;;;;;;4995195;28;20570;-75